D. Carlos I — CTHJ — position and weather

sailwx.info

Track history (hours):
 
Tides and Currents Weather Stations Pressure Air Temp Water Temp Dewpoint Dewpoint Depression Visibility Wind Speed Wind Dir Waves Ship Positions

Oceanographic research ship D. Carlos I (Portugal)

Detailed information on ship capabilities available from University of Delaware's Ocean Information Center.

Last reported at 2018-Mar-16 10:15 UTC. Time now 2018-Apr-25 02:45 UTC.
Position N 38°40' W 009°09'.
Warning: this ship's position is 39 days out of date.

Length 69 m; draft 5.6 m.

MMSI: 263144000.

Date/timePositionNaut miles runAvg speedWind from/ knotsBaromVisibWave heightAir tempDewpointWater temp
2018-Mar-16 10:15N 38°40' W 009°09'0 0.1
2018-Mar-16 10:01N 38°40' W 009°09'1 2.3
2018-Mar-16 09:31N 38°41' W 009°08'2 4.1
2018-Mar-16 09:00N 38°41' W 009°10'3 5.8
2018-Mar-16 08:30N 38°41' W 009°14'2 4.8
2018-Mar-16 08:00N 38°41' W 009°17'2 4.8
2018-Mar-16 07:30N 38°39' W 009°19'2 3.6
2018-Mar-16 07:00N 38°38' W 009°21'2 4.4
2018-Mar-16 06:30N 38°37' W 009°23'3 5.2
2018-Mar-16 06:00N 38°34' W 009°21'3 5.4
2018-Mar-16 05:30N 38°32' W 009°19'2 5.0
2018-Mar-16 05:00N 38°30' W 009°18'3 6.5
2018-Mar-16 04:30N 38°31' W 009°22'3 5.8
2018-Mar-16 04:00N 38°31' W 009°25'3 5.6
2018-Mar-16 03:30N 38°29' W 009°23'3 5.7
2018-Mar-16 02:58N 38°27' W 009°20'3 5.6
2018-Mar-16 02:29N 38°25' W 009°17'2 4.5
2018-Mar-16 01:58N 38°24' W 009°15'3 5.3
2018-Mar-16 01:28N 38°23' W 009°12'3 5.9
2018-Mar-16 01:00N 38°23' W 009°09'2 4.2
2018-Mar-16 00:30N 38°24' W 009°06'1 1.5
2018-Mar-16 00:00N 38°24' W 009°07'3 6.5
2018-Mar-15 23:30N 38°24' W 009°03'1 1.8
2018-Mar-15 23:00N 38°24' W 009°04'2 4.5
2018-Mar-15 22:30N 38°23' W 009°07'3 6.4
2018-Mar-15 22:00N 38°24' W 009°03'2 3.3
2018-Mar-15 21:30N 38°25' W 009°01'3 6.7
2018-Mar-15 21:00N 38°24' W 009°05'3 6.4
2018-Mar-15 20:30N 38°23' W 009°09'3 5.4
2018-Mar-15 20:00N 38°23' W 009°06'3 6.2
2018-Mar-15 19:30N 38°24' W 009°02'1 1.3
2018-Mar-15 19:00N 38°24' W 009°01'3 6.0
2018-Mar-15 18:30N 38°24' W 009°05'3 5.9
2018-Mar-15 18:01N 38°23' W 009°08'2 3.7
2018-Mar-15 17:30N 38°24' W 009°07'2 3.2
2018-Mar-15 16:59N 38°26' W 009°06'1 2.9
2018-Mar-15 16:31N 38°25' W 009°06'0 0.3
2018-Mar-15 16:01N 38°24' W 009°06'2 3.0
2018-Mar-15 15:30N 38°24' W 009°05'3 1.9
2018-Mar-15 13:55N 38°25' W 009°01'3 6.5
2018-Mar-15 13:30N 38°24' W 009°04'3 5.1
2018-Mar-15 13:00N 38°22' W 009°03'4 0.9
2018-Mar-15 08:31N 38°25' W 009°06'1 1.1
2018-Mar-15 08:00N 38°26' W 009°06'2 0.4
2018-Mar-15 02:59N 38°24' W 009°07'2 4.4
2018-Mar-15 02:31N 38°25' W 009°05'1 1.7
2018-Mar-15 02:00N 38°24' W 009°06'1 2.1
2018-Mar-15 01:31N 38°25' W 009°04'1 1.9
2018-Mar-15 01:01N 38°24' W 009°05'1 1.6
2018-Mar-15 00:31N 38°25' W 009°04'1 1.5
2018-Mar-15 00:01N 38°25' W 009°04'3 5.4
2018-Mar-14 23:30N 38°23' W 009°07'2 4.6
2018-Mar-14 23:00N 38°25' W 009°04'1 2.0
2018-Mar-14 22:30N 38°24' W 009°05'1 2.0
2018-Mar-14 22:01N 38°24' W 009°06'2 4.4
2018-Mar-14 21:30N 38°25' W 009°04'0 0.9
2018-Mar-14 21:00N 38°24' W 009°04'3 5.8
2018-Mar-14 20:30N 38°23' W 009°07'1 2.3
2018-Mar-14 20:01N 38°23' W 009°05'2 4.1
2018-Mar-14 19:30N 38°25' W 009°04'3 5.5
2018-Mar-14 19:00N 38°23' W 009°07'2 3.5
2018-Mar-14 18:30N 38°22' W 009°08'2 3.6
2018-Mar-14 18:00N 38°22' W 009°06'2 3.6
2018-Mar-14 17:30N 38°22' W 009°03'2 3.5
2018-Mar-14 17:01N 38°22' W 009°01'2 3.8
2018-Mar-14 16:30N 38°21' W 009°03'1 2.3
2018-Mar-14 16:00N 38°22' W 009°03'2 4.3
2018-Mar-14 15:30N 38°24' W 009°01'0 0.4
2018-Mar-14 15:01N 38°23' W 009°01'4 7.4
2018-Mar-14 14:30N 38°21' W 009°04'4 7.2
2018-Mar-14 14:00N 38°18' W 009°06'4 7.4
2018-Mar-14 13:30N 38°14' W 009°07'4 7.6
2018-Mar-14 13:01N 38°11' W 009°10'1 2.3
2018-Mar-14 12:30N 38°10' W 009°09'2 3.3
2018-Mar-14 12:00N 38°09' W 009°08'4 7.5
2018-Mar-14 11:30N 38°05' W 009°10'4 7.3
2018-Mar-14 11:00N 38°02' W 009°12'4 7.1
2018-Mar-14 10:30N 37°59' W 009°14'1 1.4
2018-Mar-14 10:00N 37°58' W 009°14'1 2.4
2018-Mar-14 09:30N 37°57' W 009°15'2 4.7
2018-Mar-14 09:00N 37°55' W 009°16'3 6.3
2018-Mar-14 08:31N 37°57' W 009°20'3 6.4
2018-Mar-14 08:00N 37°59' W 009°23'3 6.5
2018-Mar-14 07:30N 38°00' W 009°26'3 3.9
2018-Mar-14 06:46N 38°03' W 009°28'1 5.5
2018-Mar-14 06:30N 38°04' W 009°27'3 5.5
2018-Mar-14 06:00N 38°05' W 009°23'5 5.7
2018-Mar-14 05:08N 38°07' W 009°18'1 5.9
2018-Mar-14 05:00N 38°08' W 009°17'3 5.8
2018-Mar-14 04:30N 38°09' W 009°14'3 5.7
2018-Mar-14 04:00N 38°12' W 009°12'3 6.0
2018-Mar-14 03:30N 38°14' W 009°10'3 5.9
2018-Mar-14 03:00N 38°17' W 009°09'3 5.2
2018-Mar-14 02:30N 38°19' W 009°08'3 5.1
2018-Mar-14 02:00N 38°22' W 009°06'2 4.9
2018-Mar-14 01:30N 38°23' W 009°03'1 2.6
2018-Mar-14 01:00N 38°23' W 009°04'3 6.2
2018-Mar-14 00:30N 38°24' W 009°08'2 4.8
2018-Mar-14 00:01N 38°24' W 009°05'2 4.1
2018-Mar-13 23:30N 38°24' W 009°03'3 6.4
2018-Mar-13 23:00N 38°24' W 009°07'0 0.9
2018-Mar-13 22:30N 38°24' W 009°06'3 5.4
2018-Mar-13 22:00N 38°24' W 009°03'2 4.2
2018-Mar-13 21:30N 38°25' W 009°00'3 6.4
2018-Mar-13 21:00N 38°24' W 009°04'3 6.8
2018-Mar-13 20:30N 38°24' W 009°09'4 7.4
2018-Mar-13 20:00N 38°23' W 009°13'3 6.7
2018-Mar-13 19:29N 38°25' W 009°16'3 6.8
2018-Mar-13 18:59N 38°28' W 009°18'4 7.0
2018-Mar-13 18:28N 38°31' W 009°20'3 6.9
2018-Mar-13 18:00N 38°35' W 009°22'3 6.8
2018-Mar-13 17:30N 38°38' W 009°22'4 8.2
2018-Mar-13 16:59N 38°41' W 009°18'4 7.5
2018-Mar-13 16:30N 38°41' W 009°13'4 7.8
2018-Mar-13 16:00N 38°42' W 009°08'  
Track history (hours):
 
Tides and Currents Weather Stations Pressure Air Temp Water Temp Dewpoint Dewpoint Depression Visibility Wind Speed Wind Dir Waves Ship Positions

Oceanographic research ship D. Carlos I (Portugal)

Detailed information on ship capabilities available from University of Delaware's Ocean Information Center.

Last reported at 2018-Mar-16 10:15 UTC. Time now 2018-Apr-25 02:45 UTC.
Position N 38°40' W 009°09'.
Warning: this ship's position is 39 days out of date.

Length 69 m; draft 5.6 m.

MMSI: 263144000.

Date/timePositionNaut miles runAvg speedWind from/ knotsBaromVisibWave heightAir tempDewpointWater temp
2018-Mar-16 10:15N 38°40' W 009°09'0 0.1
2018-Mar-16 10:01N 38°40' W 009°09'1 2.3
2018-Mar-16 09:31N 38°41' W 009°08'2 4.1
2018-Mar-16 09:00N 38°41' W 009°10'3 5.8
2018-Mar-16 08:30N 38°41' W 009°14'2 4.8
2018-Mar-16 08:00N 38°41' W 009°17'2 4.8
2018-Mar-16 07:30N 38°39' W 009°19'2 3.6
2018-Mar-16 07:00N 38°38' W 009°21'2 4.4
2018-Mar-16 06:30N 38°37' W 009°23'3 5.2
2018-Mar-16 06:00N 38°34' W 009°21'3 5.4
2018-Mar-16 05:30N 38°32' W 009°19'2 5.0
2018-Mar-16 05:00N 38°30' W 009°18'3 6.5
2018-Mar-16 04:30N 38°31' W 009°22'3 5.8
2018-Mar-16 04:00N 38°31' W 009°25'3 5.6
2018-Mar-16 03:30N 38°29' W 009°23'3 5.7
2018-Mar-16 02:58N 38°27' W 009°20'3 5.6
2018-Mar-16 02:29N 38°25' W 009°17'2 4.5
2018-Mar-16 01:58N 38°24' W 009°15'3 5.3
2018-Mar-16 01:28N 38°23' W 009°12'3 5.9
2018-Mar-16 01:00N 38°23' W 009°09'2 4.2
2018-Mar-16 00:30N 38°24' W 009°06'1 1.5
2018-Mar-16 00:00N 38°24' W 009°07'3 6.5
2018-Mar-15 23:30N 38°24' W 009°03'1 1.8
2018-Mar-15 23:00N 38°24' W 009°04'2 4.5
2018-Mar-15 22:30N 38°23' W 009°07'3 6.4
2018-Mar-15 22:00N 38°24' W 009°03'2 3.3
2018-Mar-15 21:30N 38°25' W 009°01'3 6.7
2018-Mar-15 21:00N 38°24' W 009°05'3 6.4
2018-Mar-15 20:30N 38°23' W 009°09'3 5.4
2018-Mar-15 20:00N 38°23' W 009°06'3 6.2
2018-Mar-15 19:30N 38°24' W 009°02'1 1.3
2018-Mar-15 19:00N 38°24' W 009°01'3 6.0
2018-Mar-15 18:30N 38°24' W 009°05'3 5.9
2018-Mar-15 18:01N 38°23' W 009°08'2 3.7
2018-Mar-15 17:30N 38°24' W 009°07'2 3.2
2018-Mar-15 16:59N 38°26' W 009°06'1 2.9
2018-Mar-15 16:31N 38°25' W 009°06'0 0.3
2018-Mar-15 16:01N 38°24' W 009°06'2 3.0
2018-Mar-15 15:30N 38°24' W 009°05'3 1.9
2018-Mar-15 13:55N 38°25' W 009°01'3 6.5
2018-Mar-15 13:30N 38°24' W 009°04'3 5.1
2018-Mar-15 13:00N 38°22' W 009°03'4 0.9
2018-Mar-15 08:31N 38°25' W 009°06'1 1.1
2018-Mar-15 08:00N 38°26' W 009°06'2 0.4
2018-Mar-15 02:59N 38°24' W 009°07'2 4.4
2018-Mar-15 02:31N 38°25' W 009°05'1 1.7
2018-Mar-15 02:00N 38°24' W 009°06'1 2.1
2018-Mar-15 01:31N 38°25' W 009°04'1 1.9
2018-Mar-15 01:01N 38°24' W 009°05'1 1.6
2018-Mar-15 00:31N 38°25' W 009°04'1 1.5
2018-Mar-15 00:01N 38°25' W 009°04'3 5.4
2018-Mar-14 23:30N 38°23' W 009°07'2 4.6
2018-Mar-14 23:00N 38°25' W 009°04'1 2.0
2018-Mar-14 22:30N 38°24' W 009°05'1 2.0
2018-Mar-14 22:01N 38°24' W 009°06'2 4.4
2018-Mar-14 21:30N 38°25' W 009°04'0 0.9
2018-Mar-14 21:00N 38°24' W 009°04'3 5.8
2018-Mar-14 20:30N 38°23' W 009°07'1 2.3
2018-Mar-14 20:01N 38°23' W 009°05'2 4.1
2018-Mar-14 19:30N 38°25' W 009°04'3 5.5
2018-Mar-14 19:00N 38°23' W 009°07'2 3.5
2018-Mar-14 18:30N 38°22' W 009°08'2 3.6
2018-Mar-14 18:00N 38°22' W 009°06'2 3.6
2018-Mar-14 17:30N 38°22' W 009°03'2 3.5
2018-Mar-14 17:01N 38°22' W 009°01'2 3.8
2018-Mar-14 16:30N 38°21' W 009°03'1 2.3
2018-Mar-14 16:00N 38°22' W 009°03'2 4.3
2018-Mar-14 15:30N 38°24' W 009°01'0 0.4
2018-Mar-14 15:01N 38°23' W 009°01'4 7.4
2018-Mar-14 14:30N 38°21' W 009°04'4 7.2
2018-Mar-14 14:00N 38°18' W 009°06'4 7.4
2018-Mar-14 13:30N 38°14' W 009°07'4 7.6
2018-Mar-14 13:01N 38°11' W 009°10'1 2.3
2018-Mar-14 12:30N 38°10' W 009°09'2 3.3
2018-Mar-14 12:00N 38°09' W 009°08'4 7.5
2018-Mar-14 11:30N 38°05' W 009°10'4 7.3
2018-Mar-14 11:00N 38°02' W 009°12'4 7.1
2018-Mar-14 10:30N 37°59' W 009°14'1 1.4
2018-Mar-14 10:00N 37°58' W 009°14'1 2.4
2018-Mar-14 09:30N 37°57' W 009°15'2 4.7
2018-Mar-14 09:00N 37°55' W 009°16'3 6.3
2018-Mar-14 08:31N 37°57' W 009°20'3 6.4
2018-Mar-14 08:00N 37°59' W 009°23'3 6.5
2018-Mar-14 07:30N 38°00' W 009°26'3 3.9
2018-Mar-14 06:46N 38°03' W 009°28'1 5.5
2018-Mar-14 06:30N 38°04' W 009°27'3 5.5
2018-Mar-14 06:00N 38°05' W 009°23'5 5.7
2018-Mar-14 05:08N 38°07' W 009°18'1 5.9
2018-Mar-14 05:00N 38°08' W 009°17'3 5.8
2018-Mar-14 04:30N 38°09' W 009°14'3 5.7
2018-Mar-14 04:00N 38°12' W 009°12'3 6.0
2018-Mar-14 03:30N 38°14' W 009°10'3 5.9
2018-Mar-14 03:00N 38°17' W 009°09'3 5.2
2018-Mar-14 02:30N 38°19' W 009°08'3 5.1
2018-Mar-14 02:00N 38°22' W 009°06'2 4.9
2018-Mar-14 01:30N 38°23' W 009°03'1 2.6
2018-Mar-14 01:00N 38°23' W 009°04'3 6.2
2018-Mar-14 00:30N 38°24' W 009°08'2 4.8
2018-Mar-14 00:01N 38°24' W 009°05'2 4.1
2018-Mar-13 23:30N 38°24' W 009°03'3 6.4
2018-Mar-13 23:00N 38°24' W 009°07'0 0.9
2018-Mar-13 22:30N 38°24' W 009°06'3 5.4
2018-Mar-13 22:00N 38°24' W 009°03'2 4.2
2018-Mar-13 21:30N 38°25' W 009°00'3 6.4
2018-Mar-13 21:00N 38°24' W 009°04'3 6.8
2018-Mar-13 20:30N 38°24' W 009°09'4 7.4
2018-Mar-13 20:00N 38°23' W 009°13'3 6.7
2018-Mar-13 19:29N 38°25' W 009°16'3 6.8
2018-Mar-13 18:59N 38°28' W 009°18'4 7.0
2018-Mar-13 18:28N 38°31' W 009°20'3 6.9
2018-Mar-13 18:00N 38°35' W 009°22'3 6.8
2018-Mar-13 17:30N 38°38' W 009°22'4 8.2
2018-Mar-13 16:59N 38°41' W 009°18'4 7.5
2018-Mar-13 16:30N 38°41' W 009°13'4 7.8
2018-Mar-13 16:00N 38°42' W 009°08'  

Dump ship's entire track history